This is the latest recevied weather packets stored in our database for station/object K5UTC. If no packets are shown the sender has not sent any weather packets the latest 1 day(s).
| Time | Temp. | Humidity | Pressure | Rain* | Wind** | Luminosity | Snow |
|---|---|---|---|---|---|---|---|
| 1778024222 | 23.33° C | 60% | 1009.3 hPa | 0 mm | 0 m/s | 37 W/m² | - |
| 1778023920 | 23.33° C | 60% | 1009.7 hPa | 0 mm | 0.89 m/s, 132° | 32 W/m² | - |
| 1778023618 | 23.33° C | 61% | 1009.6 hPa | 0 mm | 0.89 m/s, 174° | 46 W/m² | - |
| 1778023315 | 23.89° C | 58% | 1009.7 hPa | 0 mm | 0.45 m/s, 175° | 63 W/m² | - |
| 1778023011 | 23.89° C | 60% | 1009.5 hPa | 0 mm | 0 m/s | 67 W/m² | - |
| 1778022710 | 23.89° C | 59% | 1009.7 hPa | 0 mm | 0 m/s | 62 W/m² | - |
| 1778022408 | 23.89° C | 58% | 1009.8 hPa | 0 mm | 0 m/s | 76 W/m² | - |
| 1778022104 | 23.89° C | 59% | 1009.7 hPa | 0 mm | 0 m/s | 95 W/m² | - |
| 1778021800 | 23.89° C | 60% | 1009.7 hPa | 0 mm | 0 m/s | 104 W/m² | - |
| 1778021497 | 23.89° C | 59% | 1010 hPa | 0 mm | 0.45 m/s, 176° | 85 W/m² | - |
| 1778021193 | 23.89° C | 56% | 1010.1 hPa | 0 mm | 0.45 m/s, 141° | 63 W/m² | - |
| 1778020891 | 23.89° C | 60% | 1010 hPa | 0 mm | 0.45 m/s, 155° | 55 W/m² | - |
| 1778020588 | 23.89° C | 60% | 1010.1 hPa | 0 mm | 0 m/s | 58 W/m² | - |
| 1778020284 | 24.44° C | 59% | 1010 hPa | 0 mm | 0 m/s | 79 W/m² | - |
| 1778019981 | 24.44° C | 56% | 1010 hPa | 0 mm | 0.45 m/s, 175° | 105 W/m² | - |
| 1778019677 | 24.44° C | 57% | 1009.9 hPa | 0 mm | 0 m/s | 113 W/m² | - |
| 1778019374 | 24.44° C | 56% | 1010 hPa | 0 mm | 0.45 m/s, 186° | 117 W/m² | - |
| 1778019070 | 25° C | 55% | 1010.1 hPa | 0 mm | 0.89 m/s, 158° | 172 W/m² | - |
| 1778018768 | 25° C | 55% | 1010.1 hPa | 0 mm | 0 m/s | 153 W/m² | - |
| 1778018466 | 25.56° C | 55% | 1010.2 hPa | 0 mm | 0.45 m/s, 150° | 139 W/m² | - |
| 1778018163 | 26.11° C | 54% | 1009.8 hPa | 0 mm | 0 m/s | 185 W/m² | - |
| 1778017861 | 25.56° C | 51% | 1010 hPa | 0 mm | 1.34 m/s, 137° | 422 W/m² | - |
| 1778017559 | 25° C | 53% | 1010.1 hPa | 0 mm | 1.34 m/s, 287° | 278 W/m² | - |
| 1778017256 | 25° C | 55% | 1010.3 hPa | 0 mm | 0.45 m/s, 150° | 304 W/m² | - |
| 1778016954 | 25° C | 58% | 1010.3 hPa | 0 mm | 0 m/s | 263 W/m² | - |
* Rain latest hour (hover to see other rain measurements)
** Current wind speed in m/s (hover to see current wind gust speed)